sensor_id;sensor_type;location;lat;lon;timestamp;temperature;humidity
4461;DHT22;2243;48.812;9.232;2022-10-16T00:00:42;17.20;99.90
4461;DHT22;2243;48.812;9.232;2022-10-16T00:03:14;17.20;99.90
4461;DHT22;2243;48.812;9.232;2022-10-16T00:05:45;17.30;99.90
4461;DHT22;2243;48.812;9.232;2022-10-16T00:08:15;17.10;99.90
4461;DHT22;2243;48.812;9.232;2022-10-16T00:10:46;17.20;99.90
4461;DHT22;2243;48.812;9.232;2022-10-16T00:13:17;17.20;99.90
4461;DHT22;2243;48.812;9.232;2022-10-16T00:15:50;17.10;99.90
4461;DHT22;2243;48.812;9.232;2022-10-16T00:18:21;17.10;99.90
4461;DHT22;2243;48.812;9.232;2022-10-16T00:20:52;17.20;99.90
4461;DHT22;2243;48.812;9.232;2022-10-16T00:23:23;17.20;99.90
4461;DHT22;2243;48.812;9.232;2022-10-16T00:25:55;17.20;99.90
4461;DHT22;2243;48.812;9.232;2022-10-16T00:28:28;17.10;99.90
4461;DHT22;2243;48.812;9.232;2022-10-16T00:31:02;17.10;99.90
4461;DHT22;2243;48.812;9.232;2022-10-16T00:33:38;17.10;99.90
4461;DHT22;2243;48.812;9.232;2022-10-16T00:36:13;17.00;99.90
4461;DHT22;2243;48.812;9.232;2022-10-16T00:38:46;17.00;99.90
4461;DHT22;2243;48.812;9.232;2022-10-16T00:41:17;16.90;99.90
4461;DHT22;2243;48.812;9.232;2022-10-16T00:43:56;16.80;99.90
4461;DHT22;2243;48.812;9.232;2022-10-16T00:46:40;16.80;99.90
4461;DHT22;2243;48.812;9.232;2022-10-16T00:49:15;16.90;99.90
4461;DHT22;2243;48.812;9.232;2022-10-16T00:51:52;16.80;99.90
4461;DHT22;2243;48.812;9.232;2022-10-16T00:54:29;16.80;99.90
4461;DHT22;2243;48.812;9.232;2022-10-16T00:57:04;16.80;99.90
4461;DHT22;2243;48.812;9.232;2022-10-16T00:59:39;16.80;99.90
4461;DHT22;2243;48.812;9.232;2022-10-16T01:02:13;16.70;99.90
4461;DHT22;2243;48.812;9.232;2022-10-16T01:04:48;16.80;99.90
4461;DHT22;2243;48.812;9.232;2022-10-16T01:10:38;16.70;99.90
4461;DHT22;2243;48.812;9.232;2022-10-16T01:13:21;16.70;99.90
4461;DHT22;2243;48.812;9.232;2022-10-16T01:15:54;16.60;99.90
4461;DHT22;2243;48.812;9.232;2022-10-16T01:18:35;16.50;99.90
4461;DHT22;2243;48.812;9.232;2022-10-16T01:21:24;16.70;99.90
4461;DHT22;2243;48.812;9.232;2022-10-16T01:24:08;16.70;99.90
4461;DHT22;2243;48.812;9.232;2022-10-16T01:29:44;16.80;99.90
4461;DHT22;2243;48.812;9.232;2022-10-16T01:32:42;16.80;99.90
4461;DHT22;2243;48.812;9.232;2022-10-16T01:35:30;16.80;99.90
4461;DHT22;2243;48.812;9.232;2022-10-16T01:38:10;16.90;99.90
4461;DHT22;2243;48.812;9.232;2022-10-16T01:40:48;16.90;99.90
4461;DHT22;2243;48.812;9.232;2022-10-16T01:43:44;16.70;99.90
4461;DHT22;2243;48.812;9.232;2022-10-16T01:46:20;16.80;99.90
4461;DHT22;2243;48.812;9.232;2022-10-16T01:48:52;16.80;99.90
4461;DHT22;2243;48.812;9.232;2022-10-16T01:51:24;16.70;99.90
4461;DHT22;2243;48.812;9.232;2022-10-16T01:53:58;16.80;99.90
4461;DHT22;2243;48.812;9.232;2022-10-16T01:56:32;16.80;99.90
4461;DHT22;2243;48.812;9.232;2022-10-16T01:59:08;16.80;99.90
4461;DHT22;2243;48.812;9.232;2022-10-16T02:01:45;16.80;99.90
4461;DHT22;2243;48.812;9.232;2022-10-16T02:04:58;16.70;99.90
4461;DHT22;2243;48.812;9.232;2022-10-16T02:07:34;16.50;99.90
4461;DHT22;2243;48.812;9.232;2022-10-16T02:10:05;16.70;99.90
4461;DHT22;2243;48.812;9.232;2022-10-16T02:12:40;16.70;99.90
4461;DHT22;2243;48.812;9.232;2022-10-16T02:15:13;16.60;99.90
4461;DHT22;2243;48.812;9.232;2022-10-16T02:17:45;16.60;99.90
4461;DHT22;2243;48.812;9.232;2022-10-16T02:20:16;16.40;99.90
4461;DHT22;2243;48.812;9.232;2022-10-16T02:22:50;16.50;99.90
4461;DHT22;2243;48.812;9.232;2022-10-16T02:25:31;16.50;99.90
4461;DHT22;2243;48.812;9.232;2022-10-16T02:28:04;16.50;99.90
4461;DHT22;2243;48.812;9.232;2022-10-16T02:30:45;16.40;99.90
4461;DHT22;2243;48.812;9.232;2022-10-16T02:33:20;16.30;99.90
4461;DHT22;2243;48.812;9.232;2022-10-16T02:35:53;16.30;99.90
4461;DHT22;2243;48.812;9.232;2022-10-16T02:38:25;16.30;99.90
4461;DHT22;2243;48.812;9.232;2022-10-16T02:40:57;16.30;99.90
4461;DHT22;2243;48.812;9.232;2022-10-16T02:43:28;16.30;99.90
4461;DHT22;2243;48.812;9.232;2022-10-16T02:45:59;16.40;99.90
4461;DHT22;2243;48.812;9.232;2022-10-16T02:48:30;16.40;99.90
4461;DHT22;2243;48.812;9.232;2022-10-16T02:51:01;16.50;99.90
4461;DHT22;2243;48.812;9.232;2022-10-16T02:53:32;16.50;99.90
4461;DHT22;2243;48.812;9.232;2022-10-16T02:56:03;16.50;99.90
4461;DHT22;2243;48.812;9.232;2022-10-16T02:58:34;16.50;99.90
4461;DHT22;2243;48.812;9.232;2022-10-16T03:01:05;16.50;99.90
4461;DHT22;2243;48.812;9.232;2022-10-16T03:03:36;16.50;99.90
4461;DHT22;2243;48.812;9.232;2022-10-16T03:06:07;16.50;99.90
4461;DHT22;2243;48.812;9.232;2022-10-16T03:08:38;16.50;99.90
4461;DHT22;2243;48.812;9.232;2022-10-16T03:11:09;16.40;99.90
4461;DHT22;2243;48.812;9.232;2022-10-16T03:13:39;16.40;99.90
4461;DHT22;2243;48.812;9.232;2022-10-16T03:16:10;16.40;99.90
4461;DHT22;2243;48.812;9.232;2022-10-16T03:18:41;16.40;99.90
4461;DHT22;2243;48.812;9.232;2022-10-16T03:21:12;16.40;99.90
4461;DHT22;2243;48.812;9.232;2022-10-16T03:23:43;16.40;99.90
4461;DHT22;2243;48.812;9.232;2022-10-16T03:26:14;16.40;99.90
4461;DHT22;2243;48.812;9.232;2022-10-16T03:28:45;16.40;99.90
4461;DHT22;2243;48.812;9.232;2022-10-16T03:31:16;16.40;99.90
4461;DHT22;2243;48.812;9.232;2022-10-16T03:33:47;16.40;99.90
4461;DHT22;2243;48.812;9.232;2022-10-16T03:36:18;16.40;99.90
4461;DHT22;2243;48.812;9.232;2022-10-16T03:38:48;16.40;99.90
4461;DHT22;2243;48.812;9.232;2022-10-16T03:41:19;16.50;99.90
4461;DHT22;2243;48.812;9.232;2022-10-16T03:43:50;16.40;99.90
4461;DHT22;2243;48.812;9.232;2022-10-16T03:46:21;16.50;99.90
4461;DHT22;2243;48.812;9.232;2022-10-16T03:48:52;16.40;99.90
4461;DHT22;2243;48.812;9.232;2022-10-16T03:51:23;16.40;99.90
4461;DHT22;2243;48.812;9.232;2022-10-16T03:53:54;16.40;99.90
4461;DHT22;2243;48.812;9.232;2022-10-16T03:56:25;16.40;99.90
4461;DHT22;2243;48.812;9.232;2022-10-16T03:58:56;16.30;99.90
4461;DHT22;2243;48.812;9.232;2022-10-16T04:01:27;16.30;99.90
4461;DHT22;2243;48.812;9.232;2022-10-16T04:03:58;16.30;99.90
4461;DHT22;2243;48.812;9.232;2022-10-16T04:06:29;16.30;99.90
4461;DHT22;2243;48.812;9.232;2022-10-16T04:09:00;16.40;99.90
4461;DHT22;2243;48.812;9.232;2022-10-16T04:11:31;16.40;99.90
4461;DHT22;2243;48.812;9.232;2022-10-16T04:14:02;16.40;99.90
4461;DHT22;2243;48.812;9.232;2022-10-16T04:16:33;16.30;99.90
4461;DHT22;2243;48.812;9.232;2022-10-16T04:19:04;16.20;99.90
4461;DHT22;2243;48.812;9.232;2022-10-16T04:21:36;16.20;99.90
4461;DHT22;2243;48.812;9.232;2022-10-16T04:24:07;16.20;99.90
4461;DHT22;2243;48.812;9.232;2022-10-16T04:26:38;16.20;99.90
4461;DHT22;2243;48.812;9.232;2022-10-16T04:29:09;16.20;99.90
4461;DHT22;2243;48.812;9.232;2022-10-16T04:31:40;16.10;99.90
4461;DHT22;2243;48.812;9.232;2022-10-16T04:34:10;16.20;99.90
4461;DHT22;2243;48.812;9.232;2022-10-16T04:36:41;16.10;99.90
4461;DHT22;2243;48.812;9.232;2022-10-16T04:39:12;16.10;99.90
4461;DHT22;2243;48.812;9.232;2022-10-16T04:41:43;16.10;99.90
4461;DHT22;2243;48.812;9.232;2022-10-16T04:44:14;16.20;99.90
4461;DHT22;2243;48.812;9.232;2022-10-16T04:46:45;16.20;99.90
4461;DHT22;2243;48.812;9.232;2022-10-16T04:49:16;16.20;99.90
4461;DHT22;2243;48.812;9.232;2022-10-16T04:51:47;16.20;99.90
4461;DHT22;2243;48.812;9.232;2022-10-16T04:54:18;16.20;99.90
4461;DHT22;2243;48.812;9.232;2022-10-16T04:56:49;16.20;99.90
4461;DHT22;2243;48.812;9.232;2022-10-16T04:59:22;16.20;99.90
4461;DHT22;2243;48.812;9.232;2022-10-16T05:01:53;16.20;99.90
4461;DHT22;2243;48.812;9.232;2022-10-16T05:04:24;16.10;99.90
4461;DHT22;2243;48.812;9.232;2022-10-16T05:06:55;16.10;99.90
4461;DHT22;2243;48.812;9.232;2022-10-16T05:09:26;16.20;99.90
4461;DHT22;2243;48.812;9.232;2022-10-16T05:11:57;16.20;99.90
4461;DHT22;2243;48.812;9.232;2022-10-16T05:14:28;16.20;99.90
4461;DHT22;2243;48.812;9.232;2022-10-16T05:16:59;16.10;99.90
4461;DHT22;2243;48.812;9.232;2022-10-16T05:19:31;16.20;99.90
4461;DHT22;2243;48.812;9.232;2022-10-16T05:22:02;16.10;99.90
4461;DHT22;2243;48.812;9.232;2022-10-16T05:24:33;16.10;99.90
4461;DHT22;2243;48.812;9.232;2022-10-16T05:27:04;16.10;99.90
4461;DHT22;2243;48.812;9.232;2022-10-16T05:29:35;16.10;99.90
4461;DHT22;2243;48.812;9.232;2022-10-16T05:32:05;16.10;99.90
4461;DHT22;2243;48.812;9.232;2022-10-16T05:34:36;16.20;99.90
4461;DHT22;2243;48.812;9.232;2022-10-16T05:37:07;16.10;99.90
4461;DHT22;2243;48.812;9.232;2022-10-16T05:39:39;16.10;99.90
4461;DHT22;2243;48.812;9.232;2022-10-16T05:42:10;16.10;99.90
4461;DHT22;2243;48.812;9.232;2022-10-16T05:44:41;16.10;99.90
4461;DHT22;2243;48.812;9.232;2022-10-16T05:47:15;16.00;99.90
4461;DHT22;2243;48.812;9.232;2022-10-16T05:49:46;16.10;99.90
4461;DHT22;2243;48.812;9.232;2022-10-16T05:52:17;16.20;99.90
4461;DHT22;2243;48.812;9.232;2022-10-16T05:54:48;16.10;99.90
4461;DHT22;2243;48.812;9.232;2022-10-16T05:57:19;16.10;99.90
4461;DHT22;2243;48.812;9.232;2022-10-16T05:59:50;16.00;99.90
4461;DHT22;2243;48.812;9.232;2022-10-16T06:02:21;16.00;99.90
4461;DHT22;2243;48.812;9.232;2022-10-16T06:04:52;16.00;99.90
4461;DHT22;2243;48.812;9.232;2022-10-16T06:07:26;16.10;99.90
4461;DHT22;2243;48.812;9.232;2022-10-16T06:09:57;16.00;99.90
4461;DHT22;2243;48.812;9.232;2022-10-16T06:12:28;15.90;99.90
4461;DHT22;2243;48.812;9.232;2022-10-16T06:14:59;16.00;99.90
4461;DHT22;2243;48.812;9.232;2022-10-16T06:17:30;15.90;99.90
4461;DHT22;2243;48.812;9.232;2022-10-16T06:20:00;15.90;99.90
4461;DHT22;2243;48.812;9.232;2022-10-16T06:22:31;15.90;99.90
4461;DHT22;2243;48.812;9.232;2022-10-16T06:25:02;15.80;99.90
4461;DHT22;2243;48.812;9.232;2022-10-16T06:27:33;15.90;99.90
4461;DHT22;2243;48.812;9.232;2022-10-16T06:30:05;15.90;99.90
4461;DHT22;2243;48.812;9.232;2022-10-16T06:32:36;15.90;99.90
4461;DHT22;2243;48.812;9.232;2022-10-16T06:35:07;15.90;99.90
4461;DHT22;2243;48.812;9.232;2022-10-16T06:37:38;15.90;99.90
4461;DHT22;2243;48.812;9.232;2022-10-16T06:40:09;15.90;99.90
4461;DHT22;2243;48.812;9.232;2022-10-16T06:42:41;16.00;99.90
4461;DHT22;2243;48.812;9.232;2022-10-16T06:45:12;15.90;99.90
4461;DHT22;2243;48.812;9.232;2022-10-16T06:47:43;15.90;99.90
4461;DHT22;2243;48.812;9.232;2022-10-16T06:50:14;15.90;99.90
4461;DHT22;2243;48.812;9.232;2022-10-16T06:52:45;16.00;99.90
4461;DHT22;2243;48.812;9.232;2022-10-16T06:55:17;16.00;99.90
4461;DHT22;2243;48.812;9.232;2022-10-16T06:57:51;16.00;99.90
4461;DHT22;2243;48.812;9.232;2022-10-16T07:00:22;16.10;99.90
4461;DHT22;2243;48.812;9.232;2022-10-16T07:02:58;16.20;99.90
4461;DHT22;2243;48.812;9.232;2022-10-16T07:05:29;16.20;99.90
4461;DHT22;2243;48.812;9.232;2022-10-16T07:08:00;16.20;99.90
4461;DHT22;2243;48.812;9.232;2022-10-16T07:10:34;16.20;99.90
4461;DHT22;2243;48.812;9.232;2022-10-16T07:13:05;16.40;99.90
4461;DHT22;2243;48.812;9.232;2022-10-16T07:15:38;16.60;99.90
4461;DHT22;2243;48.812;9.232;2022-10-16T07:18:09;16.80;99.90
4461;DHT22;2243;48.812;9.232;2022-10-16T07:20:40;16.90;99.90
4461;DHT22;2243;48.812;9.232;2022-10-16T07:23:11;17.00;99.90
4461;DHT22;2243;48.812;9.232;2022-10-16T07:25:42;17.10;99.90
4461;DHT22;2243;48.812;9.232;2022-10-16T07:28:13;17.10;99.90
4461;DHT22;2243;48.812;9.232;2022-10-16T07:30:44;17.00;99.90
4461;DHT22;2243;48.812;9.232;2022-10-16T07:33:15;17.00;99.90
4461;DHT22;2243;48.812;9.232;2022-10-16T07:35:53;16.90;99.90
4461;DHT22;2243;48.812;9.232;2022-10-16T07:38:25;17.00;99.90
4461;DHT22;2243;48.812;9.232;2022-10-16T07:41:04;17.00;99.90
4461;DHT22;2243;48.812;9.232;2022-10-16T07:43:36;16.90;99.90
4461;DHT22;2243;48.812;9.232;2022-10-16T07:46:07;16.90;99.90
4461;DHT22;2243;48.812;9.232;2022-10-16T07:48:38;16.90;99.90
4461;DHT22;2243;48.812;9.232;2022-10-16T07:51:13;16.90;99.90
4461;DHT22;2243;48.812;9.232;2022-10-16T07:53:45;17.00;99.90
4461;DHT22;2243;48.812;9.232;2022-10-16T07:56:18;17.20;99.90
4461;DHT22;2243;48.812;9.232;2022-10-16T07:58:50;17.20;99.90
4461;DHT22;2243;48.812;9.232;2022-10-16T08:01:21;17.10;99.90
4461;DHT22;2243;48.812;9.232;2022-10-16T08:03:52;17.10;99.90
4461;DHT22;2243;48.812;9.232;2022-10-16T08:06:24;17.20;99.90
4461;DHT22;2243;48.812;9.232;2022-10-16T08:08:57;17.20;99.90
4461;DHT22;2243;48.812;9.232;2022-10-16T08:11:30;17.20;99.90
4461;DHT22;2243;48.812;9.232;2022-10-16T08:14:01;17.30;99.90
4461;DHT22;2243;48.812;9.232;2022-10-16T08:16:32;17.40;99.90
4461;DHT22;2243;48.812;9.232;2022-10-16T08:19:03;17.50;99.90
4461;DHT22;2243;48.812;9.232;2022-10-16T08:21:37;17.50;99.90
4461;DHT22;2243;48.812;9.232;2022-10-16T08:24:10;17.60;99.90
4461;DHT22;2243;48.812;9.232;2022-10-16T08:26:41;17.70;99.90
4461;DHT22;2243;48.812;9.232;2022-10-16T08:29:13;17.70;99.90
4461;DHT22;2243;48.812;9.232;2022-10-16T08:31:45;17.80;99.90
4461;DHT22;2243;48.812;9.232;2022-10-16T08:34:15;17.80;99.90
4461;DHT22;2243;48.812;9.232;2022-10-16T08:36:46;17.90;99.90
4461;DHT22;2243;48.812;9.232;2022-10-16T08:39:17;18.00;99.90
4461;DHT22;2243;48.812;9.232;2022-10-16T08:51:23;18.30;99.90
4461;DHT22;2243;48.812;9.232;2022-10-16T08:53:59;18.40;99.90
4461;DHT22;2243;48.812;9.232;2022-10-16T08:56:35;18.50;99.90
4461;DHT22;2243;48.812;9.232;2022-10-16T08:59:10;18.60;99.90
4461;DHT22;2243;48.812;9.232;2022-10-16T09:01:45;18.60;99.90
4461;DHT22;2243;48.812;9.232;2022-10-16T09:10:42;18.60;99.90
4461;DHT22;2243;48.812;9.232;2022-10-16T09:16:32;18.90;99.90
4461;DHT22;2243;48.812;9.232;2022-10-16T09:19:21;19.00;99.90
4461;DHT22;2243;48.812;9.232;2022-10-16T09:22:14;19.00;99.90
4461;DHT22;2243;48.812;9.232;2022-10-16T09:24:46;19.10;99.90
4461;DHT22;2243;48.812;9.232;2022-10-16T09:27:17;19.00;99.90
4461;DHT22;2243;48.812;9.232;2022-10-16T09:29:48;19.10;99.90
4461;DHT22;2243;48.812;9.232;2022-10-16T09:32:20;19.20;99.90
4461;DHT22;2243;48.812;9.232;2022-10-16T09:34:54;19.20;99.90
4461;DHT22;2243;48.812;9.232;2022-10-16T09:37:29;19.30;99.90
4461;DHT22;2243;48.812;9.232;2022-10-16T09:40:01;19.30;99.90
4461;DHT22;2243;48.812;9.232;2022-10-16T09:42:37;19.30;99.90
4461;DHT22;2243;48.812;9.232;2022-10-16T09:45:21;19.40;99.90
4461;DHT22;2243;48.812;9.232;2022-10-16T09:47:53;19.40;99.90
4461;DHT22;2243;48.812;9.232;2022-10-16T09:50:28;19.40;99.90
4461;DHT22;2243;48.812;9.232;2022-10-16T09:53:14;19.50;99.90
4461;DHT22;2243;48.812;9.232;2022-10-16T09:55:52;19.70;99.90
4461;DHT22;2243;48.812;9.232;2022-10-16T09:58:24;19.70;99.90
4461;DHT22;2243;48.812;9.232;2022-10-16T10:00:55;19.80;99.90
4461;DHT22;2243;48.812;9.232;2022-10-16T10:03:38;19.90;99.90
4461;DHT22;2243;48.812;9.232;2022-10-16T10:11:57;20.10;99.90
4461;DHT22;2243;48.812;9.232;2022-10-16T10:14:38;20.30;99.90
4461;DHT22;2243;48.812;9.232;2022-10-16T10:17:19;20.30;99.90
4461;DHT22;2243;48.812;9.232;2022-10-16T10:20:43;20.50;99.90
4461;DHT22;2243;48.812;9.232;2022-10-16T10:22:48;20.50;99.90
4461;DHT22;2243;48.812;9.232;2022-10-16T10:34:11;21.20;99.90
4461;DHT22;2243;48.812;9.232;2022-10-16T10:36:57;21.40;99.90
4461;DHT22;2243;48.812;9.232;2022-10-16T10:39:48;21.60;99.90
4461;DHT22;2243;48.812;9.232;2022-10-16T10:42:38;22.00;99.90
4461;DHT22;2243;48.812;9.232;2022-10-16T10:51:08;23.20;99.90
4461;DHT22;2243;48.812;9.232;2022-10-16T11:06:19;23.50;99.90
4461;DHT22;2243;48.812;9.232;2022-10-16T11:09:20;23.70;99.90
4461;DHT22;2243;48.812;9.232;2022-10-16T11:17:35;23.40;99.90
4461;DHT22;2243;48.812;9.232;2022-10-16T11:20:44;23.50;99.90
4461;DHT22;2243;48.812;9.232;2022-10-16T11:23:28;23.50;99.90
4461;DHT22;2243;48.812;9.232;2022-10-16T11:26:04;23.70;99.90
4461;DHT22;2243;48.812;9.232;2022-10-16T11:28:47;23.90;99.90
4461;DHT22;2243;48.812;9.232;2022-10-16T11:31:32;24.00;99.90
4461;DHT22;2243;48.812;9.232;2022-10-16T11:37:19;24.70;99.90
4461;DHT22;2243;48.812;9.232;2022-10-16T11:40:02;25.00;99.90
4461;DHT22;2243;48.812;9.232;2022-10-16T11:42:50;25.00;99.70
4461;DHT22;2243;48.812;9.232;2022-10-16T11:45:36;24.80;99.90
4461;DHT22;2243;48.812;9.232;2022-10-16T11:48:43;24.80;99.90
4461;DHT22;2243;48.812;9.232;2022-10-16T11:54:28;24.70;99.90
4461;DHT22;2243;48.812;9.232;2022-10-16T11:57:14;24.80;99.90
4461;DHT22;2243;48.812;9.232;2022-10-16T12:08:35;25.60;99.40
4461;DHT22;2243;48.812;9.232;2022-10-16T12:11:33;25.70;98.80
4461;DHT22;2243;48.812;9.232;2022-10-16T12:17:04;26.00;98.70
4461;DHT22;2243;48.812;9.232;2022-10-16T12:22:55;26.00;97.60
4461;DHT22;2243;48.812;9.232;2022-10-16T12:25:35;25.80;98.10
4461;DHT22;2243;48.812;9.232;2022-10-16T12:28:25;25.50;99.30
4461;DHT22;2243;48.812;9.232;2022-10-16T12:31:04;25.30;99.90
4461;DHT22;2243;48.812;9.232;2022-10-16T12:33:40;25.20;99.90
4461;DHT22;2243;48.812;9.232;2022-10-16T12:36:32;25.20;99.90
4461;DHT22;2243;48.812;9.232;2022-10-16T12:39:04;25.50;99.60
4461;DHT22;2243;48.812;9.232;2022-10-16T12:41:36;25.60;98.50
4461;DHT22;2243;48.812;9.232;2022-10-16T12:44:23;25.70;98.70
4461;DHT22;2243;48.812;9.232;2022-10-16T12:46:56;25.90;96.70
4461;DHT22;2243;48.812;9.232;2022-10-16T12:51:58;25.80;96.80
4461;DHT22;2243;48.812;9.232;2022-10-16T12:54:37;25.70;96.40
4461;DHT22;2243;48.812;9.232;2022-10-16T13:00:26;25.70;97.20
4461;DHT22;2243;48.812;9.232;2022-10-16T13:14:55;25.20;97.70
4461;DHT22;2243;48.812;9.232;2022-10-16T13:20:42;25.40;97.90
4461;DHT22;2243;48.812;9.232;2022-10-16T13:30:08;25.40;97.50
4461;DHT22;2243;48.812;9.232;2022-10-16T13:32:40;25.30;98.00
4461;DHT22;2243;48.812;9.232;2022-10-16T13:35:23;25.20;97.70
4461;DHT22;2243;48.812;9.232;2022-10-16T13:43:29;25.20;98.80
4461;DHT22;2243;48.812;9.232;2022-10-16T13:46:15;25.20;98.90
4461;DHT22;2243;48.812;9.232;2022-10-16T13:49:04;25.00;99.90
4461;DHT22;2243;48.812;9.232;2022-10-16T13:51:36;25.00;99.50
4461;DHT22;2243;48.812;9.232;2022-10-16T13:54:10;25.00;99.40
4461;DHT22;2243;48.812;9.232;2022-10-16T13:56:42;24.90;99.90
4461;DHT22;2243;48.812;9.232;2022-10-16T14:01:56;24.80;99.60
4461;DHT22;2243;48.812;9.232;2022-10-16T14:04:32;24.80;98.60
4461;DHT22;2243;48.812;9.232;2022-10-16T14:07:03;24.80;99.90
4461;DHT22;2243;48.812;9.232;2022-10-16T14:09:34;24.60;99.90
4461;DHT22;2243;48.812;9.232;2022-10-16T14:12:11;24.60;99.90
4461;DHT22;2243;48.812;9.232;2022-10-16T14:14:51;24.40;99.90
4461;DHT22;2243;48.812;9.232;2022-10-16T14:17:31;24.40;99.90
4461;DHT22;2243;48.812;9.232;2022-10-16T14:20:05;24.20;99.90
4461;DHT22;2243;48.812;9.232;2022-10-16T14:22:40;24.20;99.90
4461;DHT22;2243;48.812;9.232;2022-10-16T14:28:03;24.10;99.90
4461;DHT22;2243;48.812;9.232;2022-10-16T14:31:00;24.10;99.90
4461;DHT22;2243;48.812;9.232;2022-10-16T14:33:34;24.00;99.90
4461;DHT22;2243;48.812;9.232;2022-10-16T14:38:48;24.00;99.90
4461;DHT22;2243;48.812;9.232;2022-10-16T14:41:32;23.90;99.90
4461;DHT22;2243;48.812;9.232;2022-10-16T14:44:12;23.80;99.90
4461;DHT22;2243;48.812;9.232;2022-10-16T14:46:44;23.80;99.90
4461;DHT22;2243;48.812;9.232;2022-10-16T14:49:20;23.70;99.90
4461;DHT22;2243;48.812;9.232;2022-10-16T14:51:51;23.70;99.90
4461;DHT22;2243;48.812;9.232;2022-10-16T14:54:23;23.70;99.90
4461;DHT22;2243;48.812;9.232;2022-10-16T14:56:56;23.60;99.90
4461;DHT22;2243;48.812;9.232;2022-10-16T14:59:32;23.60;99.90
4461;DHT22;2243;48.812;9.232;2022-10-16T15:04:52;23.50;99.90
4461;DHT22;2243;48.812;9.232;2022-10-16T15:07:24;23.50;99.90
4461;DHT22;2243;48.812;9.232;2022-10-16T15:09:57;23.50;99.90
4461;DHT22;2243;48.812;9.232;2022-10-16T15:12:29;23.40;99.90
4461;DHT22;2243;48.812;9.232;2022-10-16T15:14:59;23.40;99.90
4461;DHT22;2243;48.812;9.232;2022-10-16T15:17:33;23.40;99.90
4461;DHT22;2243;48.812;9.232;2022-10-16T15:20:04;23.40;99.90
4461;DHT22;2243;48.812;9.232;2022-10-16T15:22:35;23.40;99.90
4461;DHT22;2243;48.812;9.232;2022-10-16T15:28:20;23.40;99.90
4461;DHT22;2243;48.812;9.232;2022-10-16T15:30:53;23.40;99.90
4461;DHT22;2243;48.812;9.232;2022-10-16T15:33:27;23.40;99.90
4461;DHT22;2243;48.812;9.232;2022-10-16T15:36:08;23.40;99.90
4461;DHT22;2243;48.812;9.232;2022-10-16T15:38:39;23.30;99.90
4461;DHT22;2243;48.812;9.232;2022-10-16T15:41:10;23.30;99.90
4461;DHT22;2243;48.812;9.232;2022-10-16T15:43:41;23.20;99.90
4461;DHT22;2243;48.812;9.232;2022-10-16T15:46:17;23.10;99.90
4461;DHT22;2243;48.812;9.232;2022-10-16T15:48:50;23.10;99.90
4461;DHT22;2243;48.812;9.232;2022-10-16T15:51:22;23.10;99.90
4461;DHT22;2243;48.812;9.232;2022-10-16T15:53:52;23.00;99.90
4461;DHT22;2243;48.812;9.232;2022-10-16T15:56:24;23.00;99.90
4461;DHT22;2243;48.812;9.232;2022-10-16T15:58:56;22.90;99.90
4461;DHT22;2243;48.812;9.232;2022-10-16T16:01:32;22.90;99.90
4461;DHT22;2243;48.812;9.232;2022-10-16T16:04:04;22.90;99.90
4461;DHT22;2243;48.812;9.232;2022-10-16T16:06:49;22.80;99.90
4461;DHT22;2243;48.812;9.232;2022-10-16T16:09:20;22.70;99.90
4461;DHT22;2243;48.812;9.232;2022-10-16T16:11:51;22.80;99.90
4461;DHT22;2243;48.812;9.232;2022-10-16T16:14:22;22.70;99.90
4461;DHT22;2243;48.812;9.232;2022-10-16T16:16:56;22.70;99.90
4461;DHT22;2243;48.812;9.232;2022-10-16T16:19:27;22.50;99.90
4461;DHT22;2243;48.812;9.232;2022-10-16T16:21:58;22.50;99.90
4461;DHT22;2243;48.812;9.232;2022-10-16T16:24:29;22.40;99.90
4461;DHT22;2243;48.812;9.232;2022-10-16T16:27:00;22.30;99.90
4461;DHT22;2243;48.812;9.232;2022-10-16T16:29:36;22.20;99.90
4461;DHT22;2243;48.812;9.232;2022-10-16T16:32:07;22.10;99.90
4461;DHT22;2243;48.812;9.232;2022-10-16T16:34:40;22.00;99.90
4461;DHT22;2243;48.812;9.232;2022-10-16T16:37:11;21.80;99.90
4461;DHT22;2243;48.812;9.232;2022-10-16T16:39:42;21.70;99.90
4461;DHT22;2243;48.812;9.232;2022-10-16T16:42:13;21.60;99.90
4461;DHT22;2243;48.812;9.232;2022-10-16T16:44:44;21.40;99.90
4461;DHT22;2243;48.812;9.232;2022-10-16T16:47:15;21.30;99.90
4461;DHT22;2243;48.812;9.232;2022-10-16T16:49:46;21.20;99.90
4461;DHT22;2243;48.812;9.232;2022-10-16T16:52:17;21.10;99.90
4461;DHT22;2243;48.812;9.232;2022-10-16T16:54:48;20.90;99.90
4461;DHT22;2243;48.812;9.232;2022-10-16T16:57:22;21.00;99.90
4461;DHT22;2243;48.812;9.232;2022-10-16T16:59:54;20.80;99.90
4461;DHT22;2243;48.812;9.232;2022-10-16T17:02:24;20.60;99.90
4461;DHT22;2243;48.812;9.232;2022-10-16T17:04:56;20.60;99.90
4461;DHT22;2243;48.812;9.232;2022-10-16T17:07:31;20.60;99.90
4461;DHT22;2243;48.812;9.232;2022-10-16T17:10:05;20.60;99.90
4461;DHT22;2243;48.812;9.232;2022-10-16T17:12:36;20.50;99.90
4461;DHT22;2243;48.812;9.232;2022-10-16T17:15:07;20.50;99.90
4461;DHT22;2243;48.812;9.232;2022-10-16T17:17:39;20.40;99.90
4461;DHT22;2243;48.812;9.232;2022-10-16T17:20:10;20.40;99.90
4461;DHT22;2243;48.812;9.232;2022-10-16T17:22:41;20.30;99.90
4461;DHT22;2243;48.812;9.232;2022-10-16T17:25:12;20.30;99.90
4461;DHT22;2243;48.812;9.232;2022-10-16T17:27:43;20.20;99.90
4461;DHT22;2243;48.812;9.232;2022-10-16T17:30:14;20.20;99.90
4461;DHT22;2243;48.812;9.232;2022-10-16T17:32:45;20.10;99.90
4461;DHT22;2243;48.812;9.232;2022-10-16T17:35:16;20.10;99.90
4461;DHT22;2243;48.812;9.232;2022-10-16T17:37:47;20.00;99.90
4461;DHT22;2243;48.812;9.232;2022-10-16T17:40:19;20.00;99.90
4461;DHT22;2243;48.812;9.232;2022-10-16T17:42:50;20.00;99.90
4461;DHT22;2243;48.812;9.232;2022-10-16T17:45:21;19.90;99.90
4461;DHT22;2243;48.812;9.232;2022-10-16T17:47:52;19.80;99.90
4461;DHT22;2243;48.812;9.232;2022-10-16T17:50:23;19.60;99.90
4461;DHT22;2243;48.812;9.232;2022-10-16T17:52:54;19.40;99.90
4461;DHT22;2243;48.812;9.232;2022-10-16T17:55:25;19.30;99.90
4461;DHT22;2243;48.812;9.232;2022-10-16T17:57:57;19.20;99.90
4461;DHT22;2243;48.812;9.232;2022-10-16T18:00:27;19.00;99.90
4461;DHT22;2243;48.812;9.232;2022-10-16T18:03:01;18.90;99.90
4461;DHT22;2243;48.812;9.232;2022-10-16T18:05:37;18.90;99.90
4461;DHT22;2243;48.812;9.232;2022-10-16T18:08:08;18.80;99.90
4461;DHT22;2243;48.812;9.232;2022-10-16T18:10:46;18.70;99.90
4461;DHT22;2243;48.812;9.232;2022-10-16T18:13:18;18.60;99.90
4461;DHT22;2243;48.812;9.232;2022-10-16T18:15:59;18.50;99.90
4461;DHT22;2243;48.812;9.232;2022-10-16T18:18:40;18.50;99.90
4461;DHT22;2243;48.812;9.232;2022-10-16T18:21:15;18.50;99.90
4461;DHT22;2243;48.812;9.232;2022-10-16T18:23:47;18.40;99.90
4461;DHT22;2243;48.812;9.232;2022-10-16T18:26:22;18.40;99.90
4461;DHT22;2243;48.812;9.232;2022-10-16T18:28:55;18.40;99.90
4461;DHT22;2243;48.812;9.232;2022-10-16T18:31:27;18.40;99.90
4461;DHT22;2243;48.812;9.232;2022-10-16T18:33:59;18.40;99.90
4461;DHT22;2243;48.812;9.232;2022-10-16T18:36:32;18.30;99.90
4461;DHT22;2243;48.812;9.232;2022-10-16T18:39:05;18.30;99.90
4461;DHT22;2243;48.812;9.232;2022-10-16T18:41:41;18.20;99.90
4461;DHT22;2243;48.812;9.232;2022-10-16T18:44:17;18.10;99.90
4461;DHT22;2243;48.812;9.232;2022-10-16T18:46:52;18.10;99.90
4461;DHT22;2243;48.812;9.232;2022-10-16T18:49:26;18.10;99.90
4461;DHT22;2243;48.812;9.232;2022-10-16T18:51:59;18.00;99.90
4461;DHT22;2243;48.812;9.232;2022-10-16T18:54:32;17.90;99.90
4461;DHT22;2243;48.812;9.232;2022-10-16T18:57:03;17.90;99.90
4461;DHT22;2243;48.812;9.232;2022-10-16T18:59:34;17.70;99.90